DW5272 Weather Reports


Display with metric or nautical units.
time (UTC)temp
F
wind
direction
speed
MPH
gust
MPH
rain 1hr
in
rain 24hr
in
rain mn
in
humidity
%
barometer
mb
20180424160050 61 128 1.0 10.0 0.00 0.00 0.00 69 1018.3
20180424153050 60 128 3.0 8.0 0.00 0.00 0.00 72 1018.5
20180424150050 59 117 2.0 7.0 0.00 0.00 0.00 73 1018.8
20180424143050 58 105 1.0 4.0 0.00 0.00 0.00 79 1019.1
20180424140050 55 63 3.0 5.0 0.00 0.00 0.00 85 1019.2
20180424133050 54 68 1.0 4.0 0.00 0.00 0.00 88 1019.4
20180424130050 53 101 2.0 3.0 0.00 0.00 0.00 89 1019.3
20180424123050 52 170 0.0 2.0 0.00 0.00 0.00 88 1019.1
20180424120050 52 179 0.0 2.0 0.00 0.00 0.00 86 1019.0
20180424113049 51 179 0.0 1.0 0.00 0.00 0.00 86 1019.1
20180424110050 50 179 0.0 1.0 0.00 0.00 0.00 88 1019.0
20180424103050 49 179 0.0 2.0 0.00 0.00 0.00 88 1018.9
20180424100050 49 179 1.0 2.0 0.00 0.00 0.00 87 1018.8
20180424093049 50 179 0.0 2.0 0.00 0.00 0.00 87 1018.7
20180424090049 51 179 1.0 2.0 0.00 0.00 0.00 85 1019.0
20180424083049 51 179 0.0 1.0 0.00 0.00 0.00 85 1019.1
20180424080049 52 179 0.0 2.0 0.00 0.00 0.00 83 1019.1
20180424073049 52 179 0.0 2.0 0.00 0.00 0.00 82 1019.2
20180424070049 53 179 1.0 2.0 0.00 0.00 0.00 81 1019.4
20180424063048 53 179 0.0 3.0 0.00 0.00 0.00 80 1019.7
20180424060048 54 179 1.0 5.0 0.00 0.00 0.00 79 1019.9
20180424053048 54 211 1.0 5.0 0.00 0.00 0.00 79 1020.0
20180424050048 55 216 3.0 6.0 0.00 0.00 0.00 77 1020.0
20180424043048 56 182 2.0 8.0 0.00 0.00 0.00 75 1019.8
20180424040048 57 192 4.0 8.0 0.00 0.00 0.00 72 1019.9
20180424033048 57 193 3.0 8.0 0.00 0.00 0.00 61 1020.1
20180424030048 55 15 2.0 4.0 0.00 0.00 0.00 45 1019.5
20180424023048 52 336 3.0 5.0 0.00 0.00 0.00 56 1019.5
20180424020047 53 329 2.0 5.0 0.00 0.00 0.00 58 1019.5
20180424013047 54 332 3.0 4.0 0.00 0.00 0.00 55 1019.5
20180424010047 57 332 3.0 5.0 0.00 0.00 0.00 47 1019.4
20180424003047 60 324 4.0 8.0 0.00 0.00 0.00 40 1019.5
20180424000047 62 321 4.0 10.0 0.00 0.00 0.00 34 1019.5
20180423233047 64 323 3.0 10.0 0.00 0.00 0.00 34 1019.5
20180423230047 66 331 6.0 12.0 0.00 0.00 0.00 32 1019.5
20180423223047 67 327 4.0 12.0 0.00 0.00 0.00 29 1019.6
20180423220046 69 317 11.0 13.0 0.00 0.00 0.00 29 1019.7
20180423213046 70 336 8.0 12.0 0.00 0.00 0.00 29 1019.8
20180423210046 73 271 2.0 10.0 0.00 0.00 0.00 26 1020.1
20180423203046 73 344 3.0 7.0 0.00 0.00 0.00 27 1020.2
20180423200046 73 121 4.0 11.0 0.00 0.00 0.00 24 1020.6
20180423193046 72 80 8.0 10.0 0.00 0.00 0.00 24 1020.9
20180423190045 71 71 4.0 8.0 0.00 0.00 0.00 25 1021.4
20180423183045 71 168 2.0 11.0 0.00 0.00 0.00 25 1021.7
20180423180045 69 129 1.0 10.0 0.00 0.00 0.00 24 1022.1
20180423173045 69 196 3.0 10.0 0.00 0.00 0.00 27 1022.3
20180423170045 69 132 4.0 15.0 0.00 0.00 0.00 23 1022.8
20180423163045 67 38 9.0 14.0 0.00 0.00 0.00 25 1023.3